Go Pro

Abbott Laboratories (ABT) Institutional Ownership

Abbott Laboratories logo
$109.30 +0.52 (+0.47%)
As of 01:35 PM Eastern
This is a fair market value price provided by Massive. Learn more.

Institutional Ownership Changes (13F Filings) for Abbott Laboratories (NYSE:ABT)

Current
Institutional Ownership
Percentage
75.18%
Number of
Institutional Buyers
(last 12 months)
1983
Total
Institutional Inflows
(last 12 months)
$50.13B
Number of
Institutional Sellers
(last 12 months)
1747
Total
Institutional Outflows
(last 12 months)
$12.11B
Get ABT Insider Trade Alerts

Want to know when executives and insiders are buying or selling Abbott Laboratories stock? Sign up for InsiderTrades.com's daily newsletter to get the latest insider transactions delivered to your inbox daily.

SMS is currently available in Australia, Belgium, Canada, France, Germany, Ireland, Italy, New Zealand, the Netherlands, Singapore, South Africa, Spain, Switzerland, the United Kingdom, and the United States. By entering your phone number and clicking the sign-up button, you agree to receive periodic text messages from MarketBeat at the phone number you submitted, including texts that may be sent using an automatic telephone dialing system. Message and data rates may apply. Message frequency will vary. Messages will consist of stock alerts, news stories, and partner advertisements/offers. Consent is not a condition of the purchase of any goods or services. Text HELP for help/customer support. Unsubscribe at any time by replying "STOP" to any text message that you receive from MarketBeat or by visiting our mailing preferences page. Read our full terms of service and privacy policy.
Skip Chart & View Institutional Buying and Selling Data

ABT Institutional Buying and Selling by Quarter

Abbott Laboratories Major Shareholders & Ownership History

Reporting DateMajor Shareholder NameShares HeldMarket Value% of PortfolioQuarterly Change in SharesOwnership in CompanyDetails
9/3/2026 Anchor Capital Advisors LLC99,667$9.04M0.2%-27.1%0.006%
9/2/2026 Second Line Capital LLC2,289$208K0.0%-5.2%0.000%
9/2/2026 Range Advisory LLC3,176$288K0.0%+21.3%0.000%
9/2/2026 Capital & Planning LLC10,252$930K0.5%-37.7%0.001%
9/2/2026 Brown Lisle Cummings Inc.5,100$463K0.1%+8.4%0.000%
8/27/2026 VELA Investment Management LLC54,892$4.98M1.1%+164.1%0.003%
8/27/2026 Corient Private Wealth LP1,818,488$165.01M0.2%+9.1%0.105%
8/27/2026 Tucker Asset Management LLC3,467$315K0.1%+11.1%0.000%
8/26/2026 HORAN Wealth LLC38,698$3.51M0.4%+3.1%0.002%
8/26/2026 Amundi8,906,252$808.14M0.2%+20.2%0.515%
8/26/2026 Brown Financial Advisors12,572$1.14M0.4%-24.6%0.001%
8/26/2026 HighTower Advisors LLC1,585,681$143.89M0.1%-5.5%0.092%
8/25/2026 Groupe la Francaise57,813$5.25M0.1%+22.3%0.003%
8/25/2026 Kingsbury Capital Investment Advisors LLC5,569$505K0.4%-17.3%0.000%
8/24/2026 California State Teachers Retirement System246,828,861$22.40B0.1%+9,127.1%14.264%
8/23/2026 Tanager Wealth Management LLP2,947$267K0.0%-12.3%0.000%
8/23/2026 Studio Investment Management LLC11,602$1.05M0.2%+135.5%0.001%
8/23/2026 Washington Trust Advisors Inc.26,397$2.40M0.2%-3.2%0.002%
8/23/2026 Ameritas Advisory Services LLC15,622$1.42M0.0%+76.8%0.001%
8/23/2026 Guardian Wealth Advisors LLC NC5,451$495K0.0%-13.5%0.000%
8/23/2026 Wedmont Private Capital23,000$2.16M0.1%-17.6%0.001%
8/23/2026 POM Investment Strategies LLC1,101$100K0.1%+7,240.0%0.000%
8/23/2026 Widmann Financial Services Inc.2,997$272K0.1%+5.3%0.000%
8/23/2026 Yarger Wealth Strategies LLC3,070$288K0.1%+7.8%0.000%
8/23/2026 Operose Advisors LLC688$62K0.0%N/A0.000%
8/23/2026 Guardian Wealth Management Inc.26,096$2.37M1.2%+2.6%0.002%
8/23/2026 Kraematon Investment Advisors Inc.4,923$447K0.3%N/A0.000%
8/23/2026 HB Wealth Management LLC182,055$16.52M0.1%+1.4%0.011%
8/23/2026 Nilsine Partners LLC7,512$682K0.0%+9.4%0.000%
8/23/2026 Nvest Financial LLC3,369$306K0.1%-8.0%0.000%
8/23/2026 Saudi Central Bank121,916$11.06M0.1%+89.9%0.007%
8/23/2026 Hutchens & Kramer Investment Management Group LLC2,295$208K0.1%-11.5%0.000%
8/23/2026 Angeles Wealth Management LLC11,979$1.09M0.0%+11.0%0.001%
8/23/2026 Azimuth Capital Investment Management LLC58,801$5.34M0.2%-3.8%0.003%
8/22/2026 Compass Financial Management LLC1,627$156K0.0%N/A0.000%
8/22/2026 NBH Bank4,830$438K0.2%N/A0.000%
8/22/2026 Maloon Powers Pitre Higgins & Dennehy LLC4,656$423K0.1%N/A0.000%
8/22/2026 Markowski Investments1,636$148K0.0%N/A0.000%
8/22/2026 Old Mission Investment Co LLC18,548$1.68M0.4%N/A0.001%
8/22/2026 Oakmont Investment Advisors Inc.4,394$399K0.3%N/A0.000%
Three companies about to leapfrog Nvidia [And transform the entire industry] (Ad)

AI data centers have a power problem nobody likes to talk about. A single rack of computers can now use more electricity than an entire office building. One new chip, which looks more like a piece of plywood than a processor, delivers similar performance on a fraction of the power. Tech investing veteran George Gilder says that efficiency gap could decide who wins the next stage of AI. Gilder has identified three companies positioned around this power breakthrough, calling them the Trillion Dollar Triangle.tc pixel

See the three companies behind this AI power breakthrough now
8/22/2026 Cornerstone Advisors Asset Management LLC2,503$227K0.0%-15.3%0.000%
8/22/2026 Shum Financial Group Inc.7,737$702K0.4%-3.7%0.000%
8/22/2026 Raiffeisen Bank International AG305,266$28.30M0.3%-33.6%0.018%
8/22/2026 Tudor Financial Inc.26,042$2.36M1.1%+839.5%0.002%
8/22/2026 NWF Advisory Services Inc.11,419$1.04M0.1%+6.4%0.001%
8/22/2026 TD Waterhouse Canada Inc.218,899$20.18M0.1%-2.7%0.013%
8/22/2026 Syntax Research Inc.2,200$200K0.1%-81.7%0.000%
8/22/2026 Premier Path Wealth Partners LLC4,406$400K0.0%-36.3%0.000%
8/22/2026 NEOS Investment Management LLC284,296$25.80M0.1%+13.6%0.016%
8/21/2026 AXQ Capital LP40,657$3.69M0.4%+905.1%0.002%
8/21/2026 Alley Investment Management Company LLC145,425$13.20M1.5%-1.8%0.008%
8/21/2026 High Net Worth Advisory Group LLC35,708$3.24M0.7%-0.6%0.002%
8/21/2026 iSAM Funds UK Ltd14,800$1.34M1.0%N/A0.001%
8/21/2026 Athena Investment Management8,167$741K0.4%-22.2%0.000%
8/21/2026 Smallwood Wealth Investment Management LLC398$36K0.0%-58.2%0.000%
8/21/2026 Paragon Private Wealth Management LLC11,145$1.01M0.3%-18.4%0.001%
8/21/2026 Mayport LLC4,090$371K0.1%+6.9%0.000%
8/21/2026 Continuum Advisory LLC12,671$1.15M0.1%+3.4%0.001%
8/21/2026 Safeguard Investment Advisory Group LLC3,011$273K0.1%N/A0.000%
8/21/2026 Orion Capital Management LLC1,522$138K0.0%-21.4%0.000%
8/21/2026 Nykredit A S589,236$53.47M0.2%N/A0.034%
8/21/2026 Thrive Wealth Management LLC2,627$238K0.0%-19.4%0.000%
8/21/2026 MBA Advisors LLC3,788$344K0.1%+23.3%0.000%
8/21/2026 Pacifica Partners Inc.11,859$1.13M0.3%-1.8%0.001%
8/21/2026 Atticus Wealth Management LLC2,850$259K0.1%-27.4%0.000%
8/21/2026 XML Financial LLC17,979$1.63M0.1%+7.2%0.001%
8/21/2026 Beacon Financial Advisory LLC3,944$358K0.1%+95.3%0.000%
8/21/2026 Tsfg LLC109,648$9.95M1.3%-3.2%0.006%
8/21/2026 Symphony Financial Ltd. Co.15,901$1.47M0.2%+2.3%0.001%
8/21/2026 Chesapeake Wealth Management4,373$397K0.1%-9.9%0.000%
8/21/2026 Investors Research Corp6,305$572K0.1%+7,781.3%0.000%
8/21/2026 Keeler Thomas Management LLC15,780$1.43M0.5%+26.4%0.001%
8/21/2026 Triumph Capital Management840$76K0.0%-15.3%0.000%
8/21/2026 Legacy Financial Advisors Inc.5,482$497K0.1%-25.6%0.000%
8/20/2026 First PREMIER Bank5,678$515K0.1%-7.1%0.000%
8/20/2026 Proficio Capital Partners LLC12,158$1.10M0.0%N/A0.001%
8/20/2026 Community Bank & Trust Waco Texas37,733$3.42M0.6%-3.3%0.002%
8/20/2026 Nwam LLC22,578$2.05M0.1%+25.1%0.001%
8/20/2026 Clifford Swan Investment Counsel LLC199,707$18.12M0.6%-0.8%0.012%
8/20/2026 Rehmann Capital Advisory Group10,837$984K0.0%-10.2%0.001%
8/20/2026 CMH Wealth Management LLC10,877$987K0.2%+5.5%0.001%
8/20/2026 Covington Investment Advisors Inc.61,907$5.62M0.7%+1.6%0.004%
8/20/2026 A. D. Beadell Investment Counsel Inc.34,819$3.16M2.0%+28.5%0.002%
8/20/2026 Advocacy Wealth Management LLC115,947$10.52M0.2%-6.5%0.007%
8/20/2026 Oarsman Capital Inc.5,597$508K0.0%-14.3%0.000%
8/20/2026 Headlands Technologies LLC40,367$3.66M0.4%+74.3%0.002%
8/20/2026 Ancora Advisors LLC46,925$4.26M0.1%-8.5%0.003%
8/20/2026 Sigma Planning Corp13,495$1.23M0.0%+1.2%0.001%
8/20/2026 Benjamin Edwards Inc.230,949$20.96M0.2%-35.6%0.013%
8/20/2026 GTS Securities LLC4,476$406K0.0%-63.8%0.000%
A new income category is drawing serious money - here's why (Ad)

Forbes recently called a new category of exchange-traded income funds a 'golden era,' and Bloomberg noted the eye-popping yields are fueling a boom among everyday investors. Three years ago, barely a dozen of these funds existed - today there are more than 100, holding over $140 billion. These funds trade on the NYSE and NASDAQ and are built to generate monthly income. Some investors are targeting $5,000 a month with roughly one-tenth of the nest egg Wall Street says you need.tc pixel

Watch the short briefing to see how this income approach works
8/20/2026 Alyeska Investment Group L.P.1,176,080$106.72M0.3%N/A0.068%
8/20/2026 Flputnam Investment Management Co.84,829$7.70M0.1%+9.7%0.005%
8/20/2026 Davidson Investment Advisors3,084$280K0.0%+3.6%0.000%
8/20/2026 Nichols & Pratt Advisers LLP MA39,370$3.57M0.2%-6.0%0.002%
8/20/2026 Northwestern Mutual Wealth Management Co.255,295$23.17M0.0%+2.8%0.015%
8/20/2026 Private Management Group Inc.21,520$1.95M0.1%+1.6%0.001%
8/20/2026 Wedbush Securities Inc.65,216$5.92M0.2%+2.7%0.004%
8/20/2026 Sheets Smith Wealth Management3,058$277K0.0%-6.2%0.000%
8/20/2026 Okabena Investment Services Inc.31,209$2.83M0.5%-0.3%0.002%
8/20/2026 Spinnaker Trust38,948$3.53M0.2%+1.7%0.002%


ABT Institutional Ownership - Frequently Asked Questions

During the previous two years, 3,608 institutional investors and hedge funds held shares of Abbott Laboratories. The most heavily invested institutionals were California State Teachers Retirement System ($22.40B), Vanguard Group Inc. ($22.00B), BlackRock Inc. ($13.84B), State Street Corp ($10.00B), Capital International Investors ($7.92B), J. Stern & Co. LLP ($4.93B), and Capital Research Global Investors ($4.91B).Learn more on Abbott Laboratories' institutional investors.

75.18% of Abbott Laboratories' stock is owned by institutional investors. Learn more on ABT's institutional investor holdings.

Of the 3,026 institutional investors that purchased Abbott Laboratories' stock in the last 24 months, the following investors and hedge funds have bought the highest volume of shares: California State Teachers Retirement System ($244.19M), Norges Bank ($66.69M), J. Stern & Co. LLP ($39.05M), Bank of America Corp DE ($17.67M), Legal & General Group Plc ($13.14M), Nuveen LLC ($12.64M), and Flossbach Von Storch SE ($10.14M).

Institutional investors have bought a total of 496,098,459 shares in the last 24 months. This purchase volume represents approximately $50.13B in transactions.

Of the 1,746 institutional investors that sold Abbott Laboratories' stock in the last 24 months, the following investors and hedge funds have sold the highest volume of shares: Wellington Management Group LLP ($20.57M), Laurel Wealth Advisors LLC ($6.01M), T. Rowe Price Investment Management Inc. ($4.99M), Vontobel Holding Ltd. ($4.84M), Polen Capital Management LLC ($3.46M), Capital Research Global Investors ($3.00M), and Bank of New York Mellon Corp ($2.99M).

Institutional investors have sold a total of 105,582,927 shares in the last 24 months. This volume of shares sold represents approximately $12.11B in transactions.



Institutional ownership data for NYSE:ABT is compiled from quarterly 13F filings submitted to the U.S. Securities and Exchange Commission (SEC), with the most recent received on 9/4/2026. New 13F filings are added each quarter as they're published.
From Our Partners